sensor_id;sensor_type;location;lat;lon;timestamp;P1;durP1;ratioP1;P2;durP2;ratioP2
34296;SDS011;20564;42.902;25.336;2023-05-29T00:01:42;7.13;;;2.10;;
34296;SDS011;20564;42.902;25.336;2023-05-29T00:04:09;4.13;;;1.88;;
34296;SDS011;20564;42.902;25.336;2023-05-29T00:06:38;4.90;;;1.90;;
34296;SDS011;20564;42.902;25.336;2023-05-29T00:09:05;4.78;;;1.85;;
34296;SDS011;20564;42.902;25.336;2023-05-29T00:11:33;5.75;;;2.03;;
34296;SDS011;20564;42.902;25.336;2023-05-29T00:14:00;4.80;;;1.88;;
34296;SDS011;20564;42.902;25.336;2023-05-29T00:16:27;5.25;;;2.05;;
34296;SDS011;20564;42.902;25.336;2023-05-29T00:18:55;5.97;;;2.40;;
34296;SDS011;20564;42.902;25.336;2023-05-29T00:21:22;5.30;;;1.70;;
34296;SDS011;20564;42.902;25.336;2023-05-29T00:23:49;5.83;;;2.20;;
34296;SDS011;20564;42.902;25.336;2023-05-29T00:26:17;7.30;;;1.90;;
34296;SDS011;20564;42.902;25.336;2023-05-29T00:28:43;6.00;;;2.10;;
34296;SDS011;20564;42.902;25.336;2023-05-29T00:31:11;4.47;;;2.03;;
34296;SDS011;20564;42.902;25.336;2023-05-29T00:33:38;4.65;;;1.83;;
34296;SDS011;20564;42.902;25.336;2023-05-29T00:36:05;5.07;;;1.90;;
34296;SDS011;20564;42.902;25.336;2023-05-29T00:38:34;5.28;;;2.00;;
34296;SDS011;20564;42.902;25.336;2023-05-29T00:41:01;6.65;;;1.90;;
34296;SDS011;20564;42.902;25.336;2023-05-29T00:43:29;4.97;;;1.83;;
34296;SDS011;20564;42.902;25.336;2023-05-29T00:45:56;8.07;;;2.17;;
34296;SDS011;20564;42.902;25.336;2023-05-29T00:48:23;4.53;;;1.63;;
34296;SDS011;20564;42.902;25.336;2023-05-29T00:50:51;5.47;;;1.98;;
34296;SDS011;20564;42.902;25.336;2023-05-29T00:53:20;6.50;;;1.90;;
34296;SDS011;20564;42.902;25.336;2023-05-29T00:55:48;5.47;;;1.92;;
34296;SDS011;20564;42.902;25.336;2023-05-29T01:00:42;4.93;;;1.63;;
34296;SDS011;20564;42.902;25.336;2023-05-29T01:03:09;6.72;;;2.00;;
34296;SDS011;20564;42.902;25.336;2023-05-29T01:05:43;5.15;;;2.10;;
34296;SDS011;20564;42.902;25.336;2023-05-29T01:08:11;5.88;;;1.98;;
34296;SDS011;20564;42.902;25.336;2023-05-29T01:10:38;4.70;;;2.00;;
34296;SDS011;20564;42.902;25.336;2023-05-29T01:13:14;3.77;;;1.67;;
34296;SDS011;20564;42.902;25.336;2023-05-29T01:16:03;6.57;;;2.05;;
34296;SDS011;20564;42.902;25.336;2023-05-29T01:18:39;7.75;;;1.90;;
34296;SDS011;20564;42.902;25.336;2023-05-29T01:24:20;5.88;;;2.05;;
34296;SDS011;20564;42.902;25.336;2023-05-29T01:29:35;5.47;;;2.22;;
34296;SDS011;20564;42.902;25.336;2023-05-29T01:32:05;6.28;;;2.35;;
34296;SDS011;20564;42.902;25.336;2023-05-29T01:37:00;4.83;;;1.83;;
34296;SDS011;20564;42.902;25.336;2023-05-29T01:39:26;4.33;;;1.87;;
34296;SDS011;20564;42.902;25.336;2023-05-29T01:41:54;5.13;;;2.03;;
34296;SDS011;20564;42.902;25.336;2023-05-29T01:44:22;4.68;;;1.90;;
34296;SDS011;20564;42.902;25.336;2023-05-29T01:46:50;5.40;;;2.13;;
34296;SDS011;20564;42.902;25.336;2023-05-29T01:49:17;5.90;;;2.00;;
34296;SDS011;20564;42.902;25.336;2023-05-29T01:51:45;6.63;;;2.10;;
34296;SDS011;20564;42.902;25.336;2023-05-29T01:54:12;6.13;;;1.97;;
34296;SDS011;20564;42.902;25.336;2023-05-29T01:56:39;7.00;;;2.30;;
34296;SDS011;20564;42.902;25.336;2023-05-29T01:59:06;5.70;;;2.10;;
34296;SDS011;20564;42.902;25.336;2023-05-29T02:01:33;5.88;;;2.53;;
34296;SDS011;20564;42.902;25.336;2023-05-29T02:04:00;5.78;;;2.20;;
34296;SDS011;20564;42.902;25.336;2023-05-29T02:06:27;6.70;;;2.05;;
34296;SDS011;20564;42.902;25.336;2023-05-29T02:08:54;9.60;;;2.70;;
34296;SDS011;20564;42.902;25.336;2023-05-29T02:11:21;6.53;;;2.38;;
34296;SDS011;20564;42.902;25.336;2023-05-29T02:13:48;10.30;;;2.88;;
34296;SDS011;20564;42.902;25.336;2023-05-29T02:16:15;7.60;;;2.58;;
34296;SDS011;20564;42.902;25.336;2023-05-29T02:18:43;6.10;;;2.38;;
34296;SDS011;20564;42.902;25.336;2023-05-29T02:21:11;8.40;;;2.95;;
34296;SDS011;20564;42.902;25.336;2023-05-29T02:23:38;5.82;;;2.42;;
34296;SDS011;20564;42.902;25.336;2023-05-29T02:26:08;7.72;;;2.53;;
34296;SDS011;20564;42.902;25.336;2023-05-29T02:28:38;8.60;;;2.92;;
34296;SDS011;20564;42.902;25.336;2023-05-29T02:31:05;5.80;;;2.70;;
34296;SDS011;20564;42.902;25.336;2023-05-29T02:33:33;6.78;;;2.45;;
34296;SDS011;20564;42.902;25.336;2023-05-29T02:36:00;5.93;;;2.40;;
34296;SDS011;20564;42.902;25.336;2023-05-29T02:38:26;6.78;;;2.45;;
34296;SDS011;20564;42.902;25.336;2023-05-29T02:40:53;6.03;;;2.30;;
34296;SDS011;20564;42.902;25.336;2023-05-29T02:43:21;8.32;;;2.90;;
34296;SDS011;20564;42.902;25.336;2023-05-29T02:45:48;8.35;;;2.92;;
34296;SDS011;20564;42.902;25.336;2023-05-29T02:48:16;7.43;;;2.55;;
34296;SDS011;20564;42.902;25.336;2023-05-29T02:50:43;7.72;;;2.78;;
34296;SDS011;20564;42.902;25.336;2023-05-29T02:55:37;8.73;;;3.10;;
34296;SDS011;20564;42.902;25.336;2023-05-29T02:58:04;11.10;;;4.13;;
34296;SDS011;20564;42.902;25.336;2023-05-29T03:00:31;7.65;;;3.10;;
34296;SDS011;20564;42.902;25.336;2023-05-29T03:02:58;9.40;;;3.67;;
34296;SDS011;20564;42.902;25.336;2023-05-29T03:05:25;8.32;;;3.35;;
34296;SDS011;20564;42.902;25.336;2023-05-29T03:07:52;11.27;;;4.28;;
34296;SDS011;20564;42.902;25.336;2023-05-29T03:10:19;11.10;;;5.07;;
34296;SDS011;20564;42.902;25.336;2023-05-29T03:15:14;8.40;;;3.53;;
34296;SDS011;20564;42.902;25.336;2023-05-29T03:17:41;10.35;;;4.38;;
34296;SDS011;20564;42.902;25.336;2023-05-29T03:20:08;9.03;;;3.93;;
34296;SDS011;20564;42.902;25.336;2023-05-29T03:22:37;9.65;;;4.55;;
34296;SDS011;20564;42.902;25.336;2023-05-29T03:25:04;10.88;;;4.30;;
34296;SDS011;20564;42.902;25.336;2023-05-29T03:27:32;11.40;;;4.93;;
34296;SDS011;20564;42.902;25.336;2023-05-29T03:29:59;10.60;;;4.03;;
34296;SDS011;20564;42.902;25.336;2023-05-29T03:32:26;8.13;;;3.40;;
34296;SDS011;20564;42.902;25.336;2023-05-29T03:34:53;9.85;;;3.55;;
34296;SDS011;20564;42.902;25.336;2023-05-29T03:37:20;10.55;;;4.32;;
34296;SDS011;20564;42.902;25.336;2023-05-29T03:39:47;11.37;;;5.00;;
34296;SDS011;20564;42.902;25.336;2023-05-29T03:42:14;11.70;;;5.10;;
34296;SDS011;20564;42.902;25.336;2023-05-29T03:44:43;13.98;;;6.22;;
34296;SDS011;20564;42.902;25.336;2023-05-29T03:47:10;12.93;;;6.00;;
34296;SDS011;20564;42.902;25.336;2023-05-29T03:49:37;13.55;;;5.63;;
34296;SDS011;20564;42.902;25.336;2023-05-29T03:52:04;15.40;;;5.85;;
34296;SDS011;20564;42.902;25.336;2023-05-29T03:54:35;12.82;;;4.93;;
34296;SDS011;20564;42.902;25.336;2023-05-29T03:57:05;10.82;;;4.95;;
34296;SDS011;20564;42.902;25.336;2023-05-29T03:59:44;12.23;;;5.13;;
34296;SDS011;20564;42.902;25.336;2023-05-29T04:02:19;14.55;;;5.53;;
34296;SDS011;20564;42.902;25.336;2023-05-29T04:04:46;11.32;;;4.57;;
34296;SDS011;20564;42.902;25.336;2023-05-29T04:07:14;12.95;;;4.40;;
34296;SDS011;20564;42.902;25.336;2023-05-29T04:09:41;10.95;;;4.63;;
34296;SDS011;20564;42.902;25.336;2023-05-29T04:12:08;13.50;;;4.18;;
34296;SDS011;20564;42.902;25.336;2023-05-29T04:14:35;11.23;;;4.72;;
34296;SDS011;20564;42.902;25.336;2023-05-29T04:17:02;12.25;;;4.47;;
34296;SDS011;20564;42.902;25.336;2023-05-29T04:19:29;11.40;;;4.18;;
34296;SDS011;20564;42.902;25.336;2023-05-29T04:21:58;11.10;;;4.20;;
34296;SDS011;20564;42.902;25.336;2023-05-29T04:24:25;12.03;;;4.57;;
34296;SDS011;20564;42.902;25.336;2023-05-29T04:26:52;11.10;;;4.05;;
34296;SDS011;20564;42.902;25.336;2023-05-29T04:29:19;10.80;;;4.22;;
34296;SDS011;20564;42.902;25.336;2023-05-29T04:31:46;10.95;;;4.00;;
34296;SDS011;20564;42.902;25.336;2023-05-29T04:34:13;8.65;;;3.60;;
34296;SDS011;20564;42.902;25.336;2023-05-29T04:36:42;10.73;;;3.97;;
34296;SDS011;20564;42.902;25.336;2023-05-29T04:39:10;9.23;;;3.75;;
34296;SDS011;20564;42.902;25.336;2023-05-29T04:41:37;9.43;;;3.70;;
34296;SDS011;20564;42.902;25.336;2023-05-29T04:44:04;11.27;;;4.20;;
34296;SDS011;20564;42.902;25.336;2023-05-29T04:46:31;9.98;;;4.05;;
34296;SDS011;20564;42.902;25.336;2023-05-29T04:48:58;9.43;;;3.42;;
34296;SDS011;20564;42.902;25.336;2023-05-29T04:51:25;9.50;;;3.53;;
34296;SDS011;20564;42.902;25.336;2023-05-29T04:53:54;10.02;;;3.95;;
34296;SDS011;20564;42.902;25.336;2023-05-29T04:56:22;9.25;;;3.47;;
34296;SDS011;20564;42.902;25.336;2023-05-29T04:58:49;10.65;;;4.32;;
34296;SDS011;20564;42.902;25.336;2023-05-29T05:03:44;9.88;;;3.50;;
34296;SDS011;20564;42.902;25.336;2023-05-29T05:08:39;11.02;;;3.47;;
34296;SDS011;20564;42.902;25.336;2023-05-29T05:11:06;10.07;;;3.83;;
34296;SDS011;20564;42.902;25.336;2023-05-29T05:13:33;8.73;;;3.30;;
34296;SDS011;20564;42.902;25.336;2023-05-29T05:16:00;10.27;;;3.80;;
34296;SDS011;20564;42.902;25.336;2023-05-29T05:18:27;10.13;;;3.88;;
34296;SDS011;20564;42.902;25.336;2023-05-29T05:20:54;12.93;;;3.90;;
34296;SDS011;20564;42.902;25.336;2023-05-29T05:23:23;10.00;;;3.60;;
34296;SDS011;20564;42.902;25.336;2023-05-29T05:25:50;10.27;;;3.50;;
34296;SDS011;20564;42.902;25.336;2023-05-29T05:28:17;10.63;;;3.63;;
34296;SDS011;20564;42.902;25.336;2023-05-29T05:30:44;11.40;;;3.80;;
34296;SDS011;20564;42.902;25.336;2023-05-29T05:33:11;10.45;;;3.60;;
34296;SDS011;20564;42.902;25.336;2023-05-29T05:35:38;9.07;;;3.53;;
34296;SDS011;20564;42.902;25.336;2023-05-29T05:38:05;9.45;;;3.72;;
34296;SDS011;20564;42.902;25.336;2023-05-29T05:40:32;9.18;;;3.63;;
34296;SDS011;20564;42.902;25.336;2023-05-29T05:42:59;9.48;;;3.80;;
34296;SDS011;20564;42.902;25.336;2023-05-29T05:45:26;9.43;;;3.80;;
34296;SDS011;20564;42.902;25.336;2023-05-29T05:47:53;9.88;;;3.55;;
34296;SDS011;20564;42.902;25.336;2023-05-29T05:50:21;10.30;;;3.85;;
34296;SDS011;20564;42.902;25.336;2023-05-29T05:52:48;10.97;;;4.17;;
34296;SDS011;20564;42.902;25.336;2023-05-29T05:55:15;10.17;;;3.43;;
34296;SDS011;20564;42.902;25.336;2023-05-29T05:57:42;11.80;;;3.90;;
34296;SDS011;20564;42.902;25.336;2023-05-29T06:00:09;10.35;;;3.67;;
34296;SDS011;20564;42.902;25.336;2023-05-29T06:02:40;10.07;;;4.10;;
34296;SDS011;20564;42.902;25.336;2023-05-29T06:05:09;8.85;;;3.63;;
34296;SDS011;20564;42.902;25.336;2023-05-29T06:07:39;10.05;;;3.72;;
34296;SDS011;20564;42.902;25.336;2023-05-29T06:10:06;10.57;;;4.20;;
34296;SDS011;20564;42.902;25.336;2023-05-29T06:15:01;10.38;;;3.70;;
34296;SDS011;20564;42.902;25.336;2023-05-29T06:17:30;11.75;;;4.03;;
34296;SDS011;20564;42.902;25.336;2023-05-29T06:19:58;12.13;;;4.55;;
34296;SDS011;20564;42.902;25.336;2023-05-29T06:22:25;12.48;;;4.03;;
34296;SDS011;20564;42.902;25.336;2023-05-29T06:24:52;12.35;;;3.83;;
34296;SDS011;20564;42.902;25.336;2023-05-29T06:27:19;9.50;;;3.57;;
34296;SDS011;20564;42.902;25.336;2023-05-29T06:29:50;8.30;;;3.78;;
34296;SDS011;20564;42.902;25.336;2023-05-29T06:32:17;9.25;;;3.33;;
34296;SDS011;20564;42.902;25.336;2023-05-29T06:34:44;10.43;;;3.50;;
34296;SDS011;20564;42.902;25.336;2023-05-29T06:37:11;9.75;;;3.55;;
34296;SDS011;20564;42.902;25.336;2023-05-29T06:39:38;11.33;;;3.63;;
34296;SDS011;20564;42.902;25.336;2023-05-29T06:42:11;7.05;;;2.90;;
34296;SDS011;20564;42.902;25.336;2023-05-29T06:44:38;8.73;;;3.03;;
34296;SDS011;20564;42.902;25.336;2023-05-29T06:47:05;9.07;;;3.33;;
34296;SDS011;20564;42.902;25.336;2023-05-29T06:49:33;10.23;;;3.15;;
34296;SDS011;20564;42.902;25.336;2023-05-29T06:52:00;10.80;;;3.40;;
34296;SDS011;20564;42.902;25.336;2023-05-29T06:54:27;9.38;;;3.13;;
34296;SDS011;20564;42.902;25.336;2023-05-29T06:56:54;11.48;;;3.65;;
34296;SDS011;20564;42.902;25.336;2023-05-29T06:59:36;10.20;;;3.65;;
34296;SDS011;20564;42.902;25.336;2023-05-29T07:02:27;10.73;;;3.30;;
34296;SDS011;20564;42.902;25.336;2023-05-29T07:04:54;9.77;;;3.80;;
34296;SDS011;20564;42.902;25.336;2023-05-29T07:07:21;11.30;;;3.83;;
34296;SDS011;20564;42.902;25.336;2023-05-29T07:09:48;9.27;;;3.50;;
34296;SDS011;20564;42.902;25.336;2023-05-29T07:12:15;10.02;;;3.67;;
34296;SDS011;20564;42.902;25.336;2023-05-29T07:14:42;11.27;;;4.15;;
34296;SDS011;20564;42.902;25.336;2023-05-29T07:17:09;11.45;;;4.28;;
34296;SDS011;20564;42.902;25.336;2023-05-29T07:19:36;9.90;;;4.03;;
34296;SDS011;20564;42.902;25.336;2023-05-29T07:22:03;10.33;;;4.00;;
34296;SDS011;20564;42.902;25.336;2023-05-29T07:24:30;12.07;;;4.90;;
34296;SDS011;20564;42.902;25.336;2023-05-29T07:26:57;11.27;;;3.85;;
34296;SDS011;20564;42.902;25.336;2023-05-29T07:29:24;10.18;;;4.20;;
34296;SDS011;20564;42.902;25.336;2023-05-29T07:31:51;11.23;;;3.97;;
34296;SDS011;20564;42.902;25.336;2023-05-29T07:34:18;11.63;;;4.07;;
34296;SDS011;20564;42.902;25.336;2023-05-29T07:37:00;10.40;;;4.18;;
34296;SDS011;20564;42.902;25.336;2023-05-29T07:39:29;10.75;;;4.18;;
34296;SDS011;20564;42.902;25.336;2023-05-29T07:41:56;12.05;;;4.15;;
34296;SDS011;20564;42.902;25.336;2023-05-29T07:44:23;10.95;;;4.18;;
34296;SDS011;20564;42.902;25.336;2023-05-29T07:46:50;10.98;;;3.92;;
34296;SDS011;20564;42.902;25.336;2023-05-29T07:49:17;11.48;;;4.57;;
34296;SDS011;20564;42.902;25.336;2023-05-29T07:51:45;13.50;;;4.88;;
34296;SDS011;20564;42.902;25.336;2023-05-29T07:54:13;11.70;;;4.55;;
34296;SDS011;20564;42.902;25.336;2023-05-29T07:56:41;11.63;;;4.35;;
34296;SDS011;20564;42.902;25.336;2023-05-29T07:59:10;12.63;;;4.75;;
34296;SDS011;20564;42.902;25.336;2023-05-29T08:01:37;12.02;;;4.63;;
34296;SDS011;20564;42.902;25.336;2023-05-29T08:04:05;11.98;;;4.65;;
34296;SDS011;20564;42.902;25.336;2023-05-29T08:06:33;12.88;;;5.55;;
34296;SDS011;20564;42.902;25.336;2023-05-29T08:11:29;10.20;;;3.90;;
34296;SDS011;20564;42.902;25.336;2023-05-29T08:13:57;9.27;;;3.70;;
34296;SDS011;20564;42.902;25.336;2023-05-29T08:16:24;10.85;;;3.92;;
34296;SDS011;20564;42.902;25.336;2023-05-29T08:18:51;10.63;;;4.00;;
34296;SDS011;20564;42.902;25.336;2023-05-29T08:21:18;8.93;;;3.75;;
34296;SDS011;20564;42.902;25.336;2023-05-29T08:23:44;10.35;;;4.25;;
34296;SDS011;20564;42.902;25.336;2023-05-29T08:26:11;9.50;;;3.75;;
34296;SDS011;20564;42.902;25.336;2023-05-29T08:31:08;10.73;;;3.65;;
34296;SDS011;20564;42.902;25.336;2023-05-29T08:33:35;10.10;;;3.97;;
34296;SDS011;20564;42.902;25.336;2023-05-29T08:36:03;9.80;;;3.90;;
34296;SDS011;20564;42.902;25.336;2023-05-29T08:38:30;9.43;;;3.58;;
34296;SDS011;20564;42.902;25.336;2023-05-29T08:40:57;8.60;;;3.28;;
34296;SDS011;20564;42.902;25.336;2023-05-29T08:43:25;7.50;;;3.05;;
34296;SDS011;20564;42.902;25.336;2023-05-29T08:45:59;7.05;;;2.97;;
34296;SDS011;20564;42.902;25.336;2023-05-29T08:48:29;8.25;;;3.05;;
34296;SDS011;20564;42.902;25.336;2023-05-29T08:50:57;8.82;;;2.83;;
34296;SDS011;20564;42.902;25.336;2023-05-29T08:53:25;7.30;;;2.92;;
34296;SDS011;20564;42.902;25.336;2023-05-29T08:55:52;8.80;;;3.65;;
34296;SDS011;20564;42.902;25.336;2023-05-29T08:58:20;7.88;;;3.30;;
34296;SDS011;20564;42.902;25.336;2023-05-29T09:00:48;8.50;;;3.28;;
34296;SDS011;20564;42.902;25.336;2023-05-29T09:03:16;8.20;;;3.10;;
34296;SDS011;20564;42.902;25.336;2023-05-29T09:05:44;7.53;;;2.92;;
34296;SDS011;20564;42.902;25.336;2023-05-29T09:08:12;8.13;;;2.97;;
34296;SDS011;20564;42.902;25.336;2023-05-29T09:10:43;7.32;;;2.70;;
34296;SDS011;20564;42.902;25.336;2023-05-29T09:13:12;6.53;;;2.60;;
34296;SDS011;20564;42.902;25.336;2023-05-29T09:15:40;5.53;;;2.28;;
34296;SDS011;20564;42.902;25.336;2023-05-29T09:18:10;5.97;;;2.00;;
34296;SDS011;20564;42.902;25.336;2023-05-29T09:20:38;6.30;;;2.30;;
34296;SDS011;20564;42.902;25.336;2023-05-29T09:23:06;6.10;;;2.00;;
34296;SDS011;20564;42.902;25.336;2023-05-29T09:25:39;5.18;;;2.20;;
34296;SDS011;20564;42.902;25.336;2023-05-29T09:28:08;7.53;;;2.15;;
34296;SDS011;20564;42.902;25.336;2023-05-29T09:30:39;6.30;;;2.10;;
34296;SDS011;20564;42.902;25.336;2023-05-29T09:33:14;4.65;;;1.88;;
34296;SDS011;20564;42.902;25.336;2023-05-29T09:35:42;5.13;;;2.20;;
34296;SDS011;20564;42.902;25.336;2023-05-29T09:38:14;5.90;;;2.42;;
34296;SDS011;20564;42.902;25.336;2023-05-29T09:41:03;5.72;;;2.33;;
34296;SDS011;20564;42.902;25.336;2023-05-29T09:43:31;5.97;;;2.78;;
34296;SDS011;20564;42.902;25.336;2023-05-29T09:46:00;7.85;;;3.20;;
34296;SDS011;20564;42.902;25.336;2023-05-29T09:48:29;5.60;;;2.20;;
34296;SDS011;20564;42.902;25.336;2023-05-29T09:50:57;6.40;;;2.13;;
34296;SDS011;20564;42.902;25.336;2023-05-29T09:53:25;2.70;;;1.67;;
34296;SDS011;20564;42.902;25.336;2023-05-29T09:55:55;5.10;;;1.63;;
34296;SDS011;20564;42.902;25.336;2023-05-29T09:58:26;3.90;;;1.73;;
34296;SDS011;20564;42.902;25.336;2023-05-29T10:00:53;4.93;;;1.92;;
34296;SDS011;20564;42.902;25.336;2023-05-29T10:03:20;3.95;;;1.63;;
34296;SDS011;20564;42.902;25.336;2023-05-29T10:05:52;3.80;;;1.58;;
34296;SDS011;20564;42.902;25.336;2023-05-29T10:08:23;5.53;;;1.80;;
34296;SDS011;20564;42.902;25.336;2023-05-29T10:11:02;4.22;;;2.03;;
34296;SDS011;20564;42.902;25.336;2023-05-29T10:13:31;6.32;;;2.60;;
34296;SDS011;20564;42.902;25.336;2023-05-29T10:16:03;6.18;;;2.55;;
34296;SDS011;20564;42.902;25.336;2023-05-29T10:18:35;6.25;;;2.40;;
34296;SDS011;20564;42.902;25.336;2023-05-29T10:21:06;4.82;;;2.20;;
34296;SDS011;20564;42.902;25.336;2023-05-29T10:23:34;6.50;;;2.53;;
34296;SDS011;20564;42.902;25.336;2023-05-29T10:26:10;4.40;;;2.13;;
34296;SDS011;20564;42.902;25.336;2023-05-29T10:28:42;4.25;;;2.00;;
34296;SDS011;20564;42.902;25.336;2023-05-29T10:31:24;5.22;;;1.95;;
34296;SDS011;20564;42.902;25.336;2023-05-29T10:36:54;6.88;;;2.47;;
34296;SDS011;20564;42.902;25.336;2023-05-29T10:39:28;5.88;;;2.17;;
34296;SDS011;20564;42.902;25.336;2023-05-29T10:41:56;6.07;;;2.30;;
34296;SDS011;20564;42.902;25.336;2023-05-29T10:47:00;5.88;;;2.15;;
34296;SDS011;20564;42.902;25.336;2023-05-29T10:49:29;6.38;;;2.33;;
34296;SDS011;20564;42.902;25.336;2023-05-29T10:51:56;5.07;;;1.92;;
34296;SDS011;20564;42.902;25.336;2023-05-29T10:54:26;3.92;;;1.55;;
34296;SDS011;20564;42.902;25.336;2023-05-29T10:56:57;3.85;;;1.65;;
34296;SDS011;20564;42.902;25.336;2023-05-29T10:59:27;5.15;;;1.70;;
34296;SDS011;20564;42.902;25.336;2023-05-29T11:01:55;5.20;;;2.00;;
34296;SDS011;20564;42.902;25.336;2023-05-29T11:06:52;2.78;;;1.40;;
34296;SDS011;20564;42.902;25.336;2023-05-29T11:15:22;4.10;;;1.50;;
34296;SDS011;20564;42.902;25.336;2023-05-29T11:17:50;5.57;;;1.75;;
34296;SDS011;20564;42.902;25.336;2023-05-29T11:20:26;4.72;;;1.73;;
34296;SDS011;20564;42.902;25.336;2023-05-29T11:23:07;6.00;;;1.90;;
34296;SDS011;20564;42.902;25.336;2023-05-29T11:25:35;4.43;;;1.90;;
34296;SDS011;20564;42.902;25.336;2023-05-29T11:28:04;7.40;;;2.28;;
34296;SDS011;20564;42.902;25.336;2023-05-29T11:30:42;4.20;;;2.08;;
34296;SDS011;20564;42.902;25.336;2023-05-29T11:33:13;5.57;;;2.33;;
34296;SDS011;20564;42.902;25.336;2023-05-29T11:35:48;6.80;;;2.70;;
34296;SDS011;20564;42.902;25.336;2023-05-29T11:38:22;6.03;;;2.00;;
34296;SDS011;20564;42.902;25.336;2023-05-29T11:40:49;6.45;;;2.55;;
34296;SDS011;20564;42.902;25.336;2023-05-29T11:43:16;7.03;;;2.50;;
34296;SDS011;20564;42.902;25.336;2023-05-29T11:45:44;5.68;;;2.28;;
34296;SDS011;20564;42.902;25.336;2023-05-29T11:48:11;7.50;;;2.78;;
34296;SDS011;20564;42.902;25.336;2023-05-29T11:50:39;6.68;;;2.53;;
34296;SDS011;20564;42.902;25.336;2023-05-29T11:53:06;6.65;;;2.58;;
34296;SDS011;20564;42.902;25.336;2023-05-29T11:55:35;7.03;;;3.15;;
34296;SDS011;20564;42.902;25.336;2023-05-29T11:58:04;6.68;;;2.67;;
34296;SDS011;20564;42.902;25.336;2023-05-29T12:03:00;7.63;;;2.63;;
34296;SDS011;20564;42.902;25.336;2023-05-29T12:05:32;8.88;;;3.08;;
34296;SDS011;20564;42.902;25.336;2023-05-29T12:08:14;8.60;;;2.95;;
34296;SDS011;20564;42.902;25.336;2023-05-29T12:10:48;6.45;;;2.83;;
34296;SDS011;20564;42.902;25.336;2023-05-29T12:13:19;7.05;;;2.72;;
34296;SDS011;20564;42.902;25.336;2023-05-29T12:18:15;6.10;;;2.63;;
34296;SDS011;20564;42.902;25.336;2023-05-29T12:20:42;7.63;;;2.90;;
34296;SDS011;20564;42.902;25.336;2023-05-29T12:23:10;9.10;;;2.80;;
34296;SDS011;20564;42.902;25.336;2023-05-29T12:25:38;8.50;;;3.20;;
34296;SDS011;20564;42.902;25.336;2023-05-29T12:28:08;7.53;;;3.33;;
34296;SDS011;20564;42.902;25.336;2023-05-29T12:30:38;8.48;;;3.28;;
34296;SDS011;20564;42.902;25.336;2023-05-29T12:33:07;7.93;;;3.20;;
34296;SDS011;20564;42.902;25.336;2023-05-29T12:35:34;6.45;;;2.92;;
34296;SDS011;20564;42.902;25.336;2023-05-29T12:38:04;8.30;;;3.10;;
34296;SDS011;20564;42.902;25.336;2023-05-29T12:40:35;7.85;;;2.97;;
34296;SDS011;20564;42.902;25.336;2023-05-29T12:43:06;9.95;;;3.10;;
34296;SDS011;20564;42.902;25.336;2023-05-29T12:45:37;9.93;;;3.33;;
34296;SDS011;20564;42.902;25.336;2023-05-29T12:48:04;9.30;;;3.88;;
34296;SDS011;20564;42.902;25.336;2023-05-29T12:50:34;9.65;;;3.60;;
34296;SDS011;20564;42.902;25.336;2023-05-29T12:53:09;9.10;;;3.75;;
34296;SDS011;20564;42.902;25.336;2023-05-29T12:55:39;8.15;;;3.67;;
34296;SDS011;20564;42.902;25.336;2023-05-29T12:58:08;8.40;;;3.55;;
34296;SDS011;20564;42.902;25.336;2023-05-29T13:00:38;8.48;;;3.72;;
34296;SDS011;20564;42.902;25.336;2023-05-29T13:03:07;8.15;;;3.42;;
34296;SDS011;20564;42.902;25.336;2023-05-29T13:05:38;9.20;;;3.63;;
34296;SDS011;20564;42.902;25.336;2023-05-29T13:08:06;9.55;;;3.97;;
34296;SDS011;20564;42.902;25.336;2023-05-29T13:10:34;10.48;;;4.38;;
34296;SDS011;20564;42.902;25.336;2023-05-29T13:15:38;11.85;;;4.07;;
34296;SDS011;20564;42.902;25.336;2023-05-29T13:18:06;8.98;;;3.67;;
34296;SDS011;20564;42.902;25.336;2023-05-29T13:20:33;10.30;;;3.78;;
34296;SDS011;20564;42.902;25.336;2023-05-29T13:23:01;9.90;;;3.78;;
34296;SDS011;20564;42.902;25.336;2023-05-29T13:25:28;10.98;;;4.25;;
34296;SDS011;20564;42.902;25.336;2023-05-29T13:27:55;10.65;;;3.88;;
34296;SDS011;20564;42.902;25.336;2023-05-29T13:30:22;11.23;;;4.30;;
34296;SDS011;20564;42.902;25.336;2023-05-29T13:32:49;11.00;;;4.40;;
34296;SDS011;20564;42.902;25.336;2023-05-29T13:35:18;9.20;;;3.60;;
34296;SDS011;20564;42.902;25.336;2023-05-29T13:37:46;8.93;;;3.20;;
34296;SDS011;20564;42.902;25.336;2023-05-29T13:40:15;10.50;;;3.85;;
34296;SDS011;20564;42.902;25.336;2023-05-29T13:42:42;11.00;;;3.75;;
34296;SDS011;20564;42.902;25.336;2023-05-29T13:45:09;10.00;;;3.85;;
34296;SDS011;20564;42.902;25.336;2023-05-29T13:47:36;12.07;;;4.43;;
34296;SDS011;20564;42.902;25.336;2023-05-29T13:50:03;9.20;;;4.10;;
34296;SDS011;20564;42.902;25.336;2023-05-29T13:52:31;10.23;;;4.28;;
34296;SDS011;20564;42.902;25.336;2023-05-29T13:54:58;9.27;;;4.07;;
34296;SDS011;20564;42.902;25.336;2023-05-29T13:57:30;10.45;;;3.65;;
34296;SDS011;20564;42.902;25.336;2023-05-29T13:59:57;9.83;;;3.83;;
34296;SDS011;20564;42.902;25.336;2023-05-29T14:02:24;8.88;;;3.40;;
34296;SDS011;20564;42.902;25.336;2023-05-29T14:07:18;7.00;;;2.77;;
34296;SDS011;20564;42.902;25.336;2023-05-29T14:09:45;7.80;;;3.30;;
34296;SDS011;20564;42.902;25.336;2023-05-29T14:12:13;8.02;;;3.38;;
34296;SDS011;20564;42.902;25.336;2023-05-29T14:14:40;8.38;;;3.42;;
34296;SDS011;20564;42.902;25.336;2023-05-29T14:17:07;8.85;;;3.47;;
34296;SDS011;20564;42.902;25.336;2023-05-29T14:19:34;11.02;;;4.38;;
34296;SDS011;20564;42.902;25.336;2023-05-29T14:22:01;10.13;;;4.05;;
34296;SDS011;20564;42.902;25.336;2023-05-29T14:24:28;10.00;;;3.97;;
34296;SDS011;20564;42.902;25.336;2023-05-29T14:26:55;10.07;;;3.83;;
34296;SDS011;20564;42.902;25.336;2023-05-29T14:29:22;10.17;;;3.80;;
34296;SDS011;20564;42.902;25.336;2023-05-29T14:31:49;7.90;;;3.23;;
34296;SDS011;20564;42.902;25.336;2023-05-29T14:34:16;9.13;;;3.38;;
34296;SDS011;20564;42.902;25.336;2023-05-29T14:36:43;7.97;;;3.42;;
34296;SDS011;20564;42.902;25.336;2023-05-29T14:39:11;9.65;;;3.50;;
34296;SDS011;20564;42.902;25.336;2023-05-29T14:41:41;9.32;;;3.53;;
34296;SDS011;20564;42.902;25.336;2023-05-29T14:44:08;7.20;;;3.28;;
34296;SDS011;20564;42.902;25.336;2023-05-29T14:46:37;6.80;;;3.00;;
34296;SDS011;20564;42.902;25.336;2023-05-29T14:49:04;6.15;;;2.45;;
34296;SDS011;20564;42.902;25.336;2023-05-29T14:51:32;7.45;;;2.78;;
34296;SDS011;20564;42.902;25.336;2023-05-29T14:53:59;5.28;;;2.05;;
34296;SDS011;20564;42.902;25.336;2023-05-29T14:56:29;6.18;;;2.42;;
34296;SDS011;20564;42.902;25.336;2023-05-29T14:58:56;6.20;;;2.17;;
34296;SDS011;20564;42.902;25.336;2023-05-29T15:01:23;5.22;;;2.13;;
34296;SDS011;20564;42.902;25.336;2023-05-29T15:03:50;4.30;;;1.85;;
34296;SDS011;20564;42.902;25.336;2023-05-29T15:06:17;6.15;;;2.00;;
34296;SDS011;20564;42.902;25.336;2023-05-29T15:08:44;5.72;;;2.22;;
34296;SDS011;20564;42.902;25.336;2023-05-29T15:11:12;3.55;;;1.80;;
34296;SDS011;20564;42.902;25.336;2023-05-29T15:13:39;4.95;;;1.80;;
34296;SDS011;20564;42.902;25.336;2023-05-29T15:16:06;6.57;;;2.15;;
34296;SDS011;20564;42.902;25.336;2023-05-29T15:21:02;4.65;;;1.83;;
34296;SDS011;20564;42.902;25.336;2023-05-29T15:23:32;4.07;;;1.70;;
34296;SDS011;20564;42.902;25.336;2023-05-29T15:26:03;5.20;;;2.08;;
34296;SDS011;20564;42.902;25.336;2023-05-29T15:28:34;3.90;;;1.67;;
34296;SDS011;20564;42.902;25.336;2023-05-29T15:31:01;5.07;;;2.10;;
34296;SDS011;20564;42.902;25.336;2023-05-29T15:33:28;6.95;;;2.38;;